createdAt,value
2018-01-22T00:00:09.117Z,98917
2018-01-22T00:02:15.361Z,98914
2018-01-22T00:04:21.170Z,98910
2018-01-22T00:06:30.966Z,98909
2018-01-22T00:08:38.055Z,98900
2018-01-22T00:10:47.941Z,98901
2018-01-22T00:12:55.429Z,98887
2018-01-22T00:15:02.708Z,98899
2018-01-22T00:17:09.524Z,98890
2018-01-22T00:19:18.103Z,98879
2018-01-22T00:21:28.142Z,98898
2018-01-22T00:23:36.463Z,98892
2018-01-22T00:25:43.264Z,98886
2018-01-22T00:27:50.759Z,98887
2018-01-22T00:29:57.530Z,98880
2018-01-22T00:32:03.720Z,98873
2018-01-22T00:34:11.803Z,98879
2018-01-22T00:36:19.968Z,98872
2018-01-22T00:38:29.928Z,98879
2018-01-22T00:40:37.448Z,98862
2018-01-22T00:42:44.189Z,98862
2018-01-22T00:44:51.852Z,98854
2018-01-22T00:46:59.744Z,98844
2018-01-22T00:49:08.744Z,98843
2018-01-22T00:51:17.485Z,98845
2018-01-22T00:53:26.800Z,98848
2018-01-22T00:55:33.695Z,98829
2018-01-22T00:57:40.890Z,98838
2018-01-22T00:59:49.281Z,98838
2018-01-22T01:01:55.322Z,98842
2018-01-22T01:04:01.329Z,98840
2018-01-22T01:06:07.032Z,98835
2018-01-22T01:08:12.727Z,98840
2018-01-22T01:10:19.392Z,98839
2018-01-22T01:12:28.506Z,98840
2018-01-22T01:14:34.177Z,98837
2018-01-22T01:16:40.108Z,98834
2018-01-22T01:18:45.873Z,98828
2018-01-22T01:20:51.705Z,98826
2018-01-22T01:22:57.835Z,98826
2018-01-22T01:25:04.034Z,98825
2018-01-22T01:27:09.770Z,98825
2018-01-22T01:29:15.943Z,98820
2018-01-22T01:31:21.606Z,98816
2018-01-22T01:33:29.409Z,98824
2018-01-22T01:35:35.626Z,98818
2018-01-22T01:37:41.308Z,98799
2018-01-22T01:39:46.962Z,98801
2018-01-22T01:41:52.757Z,98810
2018-01-22T01:43:58.420Z,98810
2018-01-22T01:46:04.163Z,98800
2018-01-22T01:48:10.123Z,98789
2018-01-22T01:50:15.773Z,98779
2018-01-22T01:52:22.056Z,98775
2018-01-22T01:54:32.237Z,98777
2018-01-22T01:56:38.311Z,98778
2018-01-22T01:58:44.397Z,98777
2018-01-22T02:00:51.042Z,98764
2018-01-22T02:02:56.907Z,98761
2018-01-22T02:05:03.514Z,98759
2018-01-22T02:07:11.087Z,98741
2018-01-22T02:09:16.928Z,98736
2018-01-22T02:11:26.220Z,98726
2018-01-22T02:13:31.978Z,98728
2018-01-22T02:15:37.900Z,98730
2018-01-22T02:17:44.363Z,98736
2018-01-22T02:19:52.251Z,98740
2018-01-22T02:21:58.927Z,98723
2018-01-22T02:24:05.653Z,98718
2018-01-22T02:26:12.898Z,98712
2018-01-22T02:28:19.464Z,98706
2018-01-22T02:30:29.097Z,98697
2018-01-22T02:32:34.688Z,98708
2018-01-22T02:34:40.550Z,98711
2018-01-22T02:36:46.630Z,98706
2018-01-22T02:38:52.990Z,98710
2018-01-22T02:40:59.445Z,98707
2018-01-22T02:43:05.490Z,98703
2018-01-22T02:45:11.431Z,98699
2018-01-22T02:47:17.162Z,98690
2018-01-22T02:49:23.285Z,98689
2018-01-22T02:51:31.474Z,98687
2018-01-22T02:53:37.207Z,98687
2018-01-22T02:55:45.057Z,98690
2018-01-22T02:57:53.012Z,98684
2018-01-22T03:00:00.469Z,98675
2018-01-22T03:02:06.293Z,98667
2018-01-22T03:04:12.019Z,98668
2018-01-22T03:06:17.662Z,98669
2018-01-22T03:08:23.254Z,98660
2018-01-22T03:10:31.778Z,98657
2018-01-22T03:12:37.487Z,98662
2018-01-22T03:14:43.188Z,98654
2018-01-22T03:16:49.128Z,98651
2018-01-22T03:18:55.493Z,98638
2018-01-22T03:21:01.054Z,98633
2018-01-22T03:23:07.239Z,98627
2018-01-22T03:25:12.904Z,98628
2018-01-22T03:27:18.381Z,98627
2018-01-22T03:29:26.146Z,98625
2018-01-22T03:31:31.749Z,98621
2018-01-22T03:33:43.190Z,98619
2018-01-22T03:35:48.979Z,98614
2018-01-22T03:37:54.991Z,98606
2018-01-22T03:40:00.871Z,98586
2018-01-22T03:42:06.445Z,98572
2018-01-22T03:44:12.503Z,98567
2018-01-22T03:46:18.694Z,98572
2018-01-22T03:48:27.317Z,98580
2018-01-22T03:50:33.242Z,98579
2018-01-22T03:52:38.942Z,98579
2018-01-22T03:54:45.590Z,98586
2018-01-22T03:56:52.006Z,98582
2018-01-22T03:58:59.630Z,98585
2018-01-22T04:01:05.503Z,98587
2018-01-22T04:03:11.785Z,98585
2018-01-22T04:05:17.883Z,98582
2018-01-22T04:07:23.502Z,98581
2018-01-22T04:09:30.998Z,98580
2018-01-22T04:11:36.730Z,98577
2018-01-22T04:13:42.363Z,98575
2018-01-22T04:15:48.086Z,98564
2018-01-22T04:17:54.006Z,98560
2018-01-22T04:19:59.682Z,98559
2018-01-22T04:22:05.489Z,98556
2018-01-22T04:24:12.712Z,98557
2018-01-22T04:26:18.367Z,98561
2018-01-22T04:28:28.948Z,98552
2018-01-22T04:30:34.675Z,98551
2018-01-22T04:32:41.599Z,98542
2018-01-22T04:34:47.252Z,98535
2018-01-22T04:36:56.121Z,98533
2018-01-22T04:39:02.686Z,98520
2018-01-22T04:41:08.434Z,98514
2018-01-22T04:43:14.094Z,98509
2018-01-22T04:45:21.357Z,98503
2018-01-22T04:47:29.730Z,98493
2018-01-22T04:49:35.661Z,98488
2018-01-22T04:51:41.854Z,98479
2018-01-22T04:53:47.750Z,98473
2018-01-22T04:55:56.520Z,98473
2018-01-22T04:58:09.576Z,98468
2018-01-22T05:00:50.041Z,98461
2018-01-22T05:03:04.749Z,98471
2018-01-22T05:05:14.251Z,98472
2018-01-22T05:07:31.616Z,98470
2018-01-22T05:09:40.386Z,98471
2018-01-22T05:11:51.078Z,98468
2018-01-22T05:13:58.202Z,98459
2018-01-22T05:16:10.560Z,98464
2018-01-22T05:18:19.253Z,98461
2018-01-22T05:20:30.111Z,98457
2018-01-22T05:22:35.909Z,98453
2018-01-22T05:24:42.514Z,98458
2018-01-22T05:26:49.026Z,98461
2018-01-22T05:28:55.847Z,98455
2018-01-22T05:31:02.741Z,98449
2018-01-22T05:33:09.277Z,98445
2018-01-22T05:35:16.411Z,98445
2018-01-22T05:37:26.841Z,98454
2018-01-22T05:39:34.738Z,98465
2018-01-22T05:41:41.944Z,98462
2018-01-22T05:43:49.219Z,98445
2018-01-22T05:45:58.004Z,98466
2018-01-22T05:48:05.995Z,98470
2018-01-22T05:50:12.992Z,98472
2018-01-22T05:52:19.411Z,98476
2018-01-22T05:54:28.787Z,98470
2018-01-22T05:56:35.396Z,98467
2018-01-22T05:58:41.876Z,98461
2018-01-22T06:00:48.102Z,98464
2018-01-22T06:02:54.290Z,98459
2018-01-22T06:05:00.586Z,98447
2018-01-22T06:07:07.243Z,98436
2018-01-22T06:09:15.863Z,98431
2018-01-22T06:11:28.600Z,98430
2018-01-22T06:13:36.646Z,98436
2018-01-22T06:15:44.571Z,98443
2018-01-22T06:17:50.478Z,98447
2018-01-22T06:19:56.561Z,98435
2018-01-22T06:22:02.946Z,98437
2018-01-22T06:24:08.710Z,98430
2018-01-22T06:26:16.233Z,98413
2018-01-22T06:28:22.459Z,98395
2018-01-22T06:30:28.450Z,98394
2018-01-22T06:32:34.747Z,98399
2018-01-22T06:34:41.787Z,98398
2018-01-22T06:36:47.454Z,98407
2018-01-22T06:38:53.464Z,98392
2018-01-22T06:40:59.585Z,98381
2018-01-22T06:43:07.407Z,98388
2018-01-22T06:45:14.395Z,98390
2018-01-22T06:47:20.798Z,98398
2018-01-22T06:49:28.239Z,98398
2018-01-22T06:51:34.154Z,98395
2018-01-22T06:53:40.366Z,98401
2018-01-22T06:55:47.342Z,98390
2018-01-22T06:57:53.111Z,98394
2018-01-22T07:00:00.201Z,98393
2018-01-22T07:02:05.978Z,98390
2018-01-22T07:04:11.687Z,98384
2018-01-22T07:10:19.316Z,98366
2018-01-22T07:12:26.374Z,98366
2018-01-22T07:14:34.048Z,98346
2018-01-22T07:16:42.506Z,98347
2018-01-22T07:18:49.312Z,98345
2018-01-22T07:20:55.058Z,98350
2018-01-22T07:23:00.997Z,98341
2018-01-22T07:25:07.378Z,98348
2018-01-22T07:27:13.171Z,98336
2018-01-22T07:29:18.839Z,98330
2018-01-22T07:31:26.439Z,98337
2018-01-22T07:33:33.323Z,98333
2018-01-22T07:35:38.980Z,98345
2018-01-22T07:37:44.933Z,98345
2018-01-22T07:39:50.546Z,98354
2018-01-22T07:41:57.081Z,98358
2018-01-22T07:44:03.041Z,98357
2018-01-22T07:46:09.051Z,98347
2018-01-22T07:48:14.799Z,98350
2018-01-22T07:50:21.724Z,98348
2018-01-22T07:52:30.114Z,98339
2018-01-22T07:54:35.802Z,98351
2018-01-22T07:56:41.975Z,98353
2018-01-22T07:58:47.909Z,98362
2018-01-22T08:00:53.690Z,98361
2018-01-22T08:02:59.626Z,98370
2018-01-22T08:05:06.107Z,98368
2018-01-22T08:07:12.267Z,98365
2018-01-22T08:09:18.391Z,98367
2018-01-22T08:11:26.097Z,98360
2018-01-22T08:13:32.995Z,98368
2018-01-22T08:15:38.831Z,98355
2018-01-22T08:17:44.776Z,98355
2018-01-22T08:19:51.125Z,98357
2018-01-22T08:21:58.480Z,98361
2018-01-22T08:24:05.252Z,98364
2018-01-22T08:26:12.896Z,98368
2018-01-22T08:28:38.810Z,98371
2018-01-22T08:30:51.177Z,98366
2018-01-22T08:35:31.550Z,98373
2018-01-22T08:37:37.682Z,98372
2018-01-22T08:39:46.038Z,98370
2018-01-22T08:41:59.481Z,98354
2018-01-22T08:44:05.802Z,98357
2018-01-22T08:46:11.944Z,98354
2018-01-22T08:48:17.916Z,98354
2018-01-22T08:50:26.054Z,98343
2018-01-22T08:52:33.547Z,98337
2018-01-22T08:54:40.654Z,98331
2018-01-22T08:56:47.028Z,98325
2018-01-22T08:58:53.226Z,98324
2018-01-22T09:00:59.481Z,98323
2018-01-22T09:03:06.418Z,98326
2018-01-22T09:05:13.329Z,98318
2018-01-22T09:07:19.189Z,98307
2018-01-22T09:09:27.149Z,98303
2018-01-22T09:11:34.229Z,98292
2018-01-22T09:13:42.762Z,98282
2018-01-22T09:15:56.566Z,98292
2018-01-22T09:18:03.184Z,98290
2018-01-22T09:20:13.267Z,98294
2018-01-22T09:22:18.981Z,98293
2018-01-22T09:24:27.425Z,98299
2018-01-22T09:26:33.535Z,98304
2018-01-22T09:28:41.233Z,98294
2018-01-22T09:30:47.978Z,98302
2018-01-22T09:35:37.465Z,98302
2018-01-22T09:37:43.706Z,98296
2018-01-22T09:40:01.268Z,98302
2018-01-22T09:42:09.932Z,98300
2018-01-22T09:47:53.213Z,98303
2018-01-22T09:49:59.232Z,98298
2018-01-22T09:52:07.122Z,98286
2018-01-22T09:54:13.744Z,98290
2018-01-22T09:56:19.974Z,98294
2018-01-22T09:58:25.818Z,98298
2018-01-22T10:00:35.797Z,98289
2018-01-22T10:02:42.119Z,98279
2018-01-22T10:04:48.384Z,98280
2018-01-22T10:06:56.612Z,98267
2018-01-22T10:09:02.894Z,98264
2018-01-22T10:11:09.141Z,98262
2018-01-22T10:13:14.987Z,98268
2018-01-22T10:15:21.501Z,98261
2018-01-22T10:17:30.375Z,98259
2018-01-22T10:19:36.804Z,98253
2018-01-22T10:21:42.722Z,98260
2018-01-22T10:23:48.463Z,98263
2018-01-22T10:25:54.795Z,98269
2018-01-22T10:28:21.232Z,98269
2018-01-22T10:30:28.567Z,98257
2018-01-22T10:32:35.469Z,98264
2018-01-22T10:34:42.019Z,98260
2018-01-22T10:36:50.152Z,98250
2018-01-22T10:38:56.750Z,98255
2018-01-22T10:41:04.349Z,98250
2018-01-22T10:43:11.902Z,98251
2018-01-22T10:45:18.947Z,98252
2018-01-22T10:48:01.586Z,98250
2018-01-22T10:50:37.351Z,98246
2018-01-22T10:55:14.387Z,98235
2018-01-22T10:57:21.603Z,98233
2018-01-22T10:59:38.955Z,98226
2018-01-22T11:01:52.233Z,98235
2018-01-22T11:03:59.886Z,98224
2018-01-22T11:06:15.663Z,98221
2018-01-22T11:08:27.514Z,98215
2018-01-22T11:10:37.753Z,98209
2018-01-22T11:12:45.683Z,98210
2018-01-22T11:14:54.376Z,98206
2018-01-22T11:26:58.415Z,98182
2018-01-22T11:29:34.394Z,98183
2018-01-22T11:31:41.701Z,98181
2018-01-22T11:33:51.066Z,98177
2018-01-22T11:35:58.918Z,98181
2018-01-22T11:38:23.176Z,98176
2018-01-22T11:45:46.346Z,98176
2018-01-22T11:47:52.424Z,98172
2018-01-22T11:49:58.642Z,98173
2018-01-22T11:52:09.609Z,98175
2018-01-22T11:54:16.769Z,98170
2018-01-22T11:56:22.934Z,98170
2018-01-22T11:58:31.680Z,98171
2018-01-22T12:00:37.736Z,98171
2018-01-22T12:02:44.115Z,98171
2018-01-22T12:05:11.523Z,98166
2018-01-22T12:07:18.252Z,98162
2018-01-22T12:09:29.065Z,98153
2018-01-22T12:11:36.361Z,98155
2018-01-22T12:13:42.633Z,98160
2018-01-22T12:15:48.687Z,98159
2018-01-22T12:17:54.981Z,98162
2018-01-22T12:20:01.228Z,98154
2018-01-22T12:22:07.269Z,98147
2018-01-22T12:24:14.346Z,98146
2018-01-22T12:26:20.123Z,98134
2018-01-22T12:28:27.788Z,98139
2018-01-22T12:30:34.903Z,98125
2018-01-22T12:32:42.064Z,98134
2018-01-22T12:34:49.679Z,98135
2018-01-22T12:36:56.204Z,98134
2018-01-22T12:39:04.748Z,98131
2018-01-22T12:41:12.420Z,98134
2018-01-22T12:43:18.333Z,98129
2018-01-22T12:45:26.549Z,98130
2018-01-22T12:47:32.263Z,98129
2018-01-22T12:49:38.184Z,98129
2018-01-22T12:51:44.648Z,98136
2018-01-22T12:53:50.463Z,98129
2018-01-22T12:56:02.618Z,98124
2018-01-22T12:58:12.701Z,98124
2018-01-22T13:00:19.636Z,98125
2018-01-22T13:02:29.349Z,98119
2018-01-22T13:04:39.053Z,98113
2018-01-22T13:06:47.021Z,98105
2018-01-22T13:08:54.515Z,98108
2018-01-22T13:11:00.558Z,98110
2018-01-22T13:13:06.625Z,98109
2018-01-22T13:15:15.162Z,98112
2018-01-22T13:17:26.894Z,98113
2018-01-22T13:19:40.945Z,98112
2018-01-22T13:21:50.091Z,98104
2018-01-22T13:24:01.751Z,98117
2018-01-22T13:26:09.139Z,98121
2018-01-22T13:28:15.420Z,98126
2018-01-22T13:30:22.453Z,98121
2018-01-22T13:32:33.719Z,98119
2018-01-22T13:34:40.095Z,98117
2018-01-22T13:36:46.234Z,98119
2018-01-22T13:38:52.815Z,98122
2018-01-22T13:41:02.995Z,98124
2018-01-22T13:43:09.924Z,98129
2018-01-22T13:45:16.777Z,98124
2018-01-22T13:47:24.508Z,98133
2018-01-22T13:49:30.287Z,98139
2018-01-22T13:51:37.082Z,98145
2018-01-22T13:53:51.329Z,98142
2018-01-22T13:55:57.614Z,98152
2018-01-22T13:58:05.678Z,98148
2018-01-22T14:00:13.543Z,98149
2018-01-22T14:02:20.478Z,98144
2018-01-22T14:04:29.403Z,98147
2018-01-22T14:06:36.684Z,98156
2018-01-22T14:08:43.120Z,98153
2018-01-22T14:10:49.067Z,98154
2018-01-22T14:12:55.888Z,98153
2018-01-22T14:15:02.055Z,98156
2018-01-22T14:17:07.934Z,98158
2018-01-22T14:19:14.896Z,98157
2018-01-22T14:21:21.321Z,98156
2018-01-22T14:23:29.364Z,98152
2018-01-22T14:25:36.368Z,98148
2018-01-22T14:27:43.505Z,98157
2018-01-22T14:29:50.495Z,98164
2018-01-22T14:31:58.651Z,98172
2018-01-22T14:34:05.359Z,98177
2018-01-22T14:36:12.551Z,98176
2018-01-22T14:38:19.322Z,98170
2018-01-22T14:40:24.999Z,98170
2018-01-22T14:42:31.772Z,98167
2018-01-22T14:44:40.858Z,98173
2018-01-22T14:46:47.265Z,98171
2018-01-22T14:48:53.167Z,98177
2018-01-22T14:51:00.276Z,98182
2018-01-22T14:53:07.482Z,98184
2018-01-22T14:55:14.983Z,98196
2018-01-22T14:57:22.228Z,98201
2018-01-22T14:59:29.027Z,98199
2018-01-22T15:01:35.268Z,98203
2018-01-22T15:03:41.451Z,98205
2018-01-22T15:05:48.373Z,98210
2018-01-22T15:07:54.330Z,98212
2018-01-22T15:10:00.950Z,98219
2018-01-22T15:12:07.014Z,98219
2018-01-22T15:14:14.131Z,98230
2018-01-22T15:16:20.224Z,98232
2018-01-22T15:18:25.946Z,98226
2018-01-22T15:20:31.947Z,98234
2018-01-22T15:22:39.756Z,98235
2018-01-22T15:24:45.986Z,98239
2018-01-22T15:26:53.016Z,98245
2018-01-22T15:28:59.247Z,98251
2018-01-22T15:31:07.108Z,98257
2018-01-22T15:33:13.734Z,98257
2018-01-22T15:35:20.088Z,98264
2018-01-22T15:37:28.696Z,98263
2018-01-22T15:39:36.035Z,98266
2018-01-22T15:41:42.974Z,98268
2018-01-22T15:43:50.423Z,98271
2018-01-22T15:45:59.282Z,98270
2018-01-22T15:48:11.940Z,98276
2018-01-22T15:50:31.748Z,98277
2018-01-22T15:52:40.150Z,98278
2018-01-22T15:54:47.188Z,98281
2018-01-22T15:56:52.751Z,98279
2018-01-22T15:58:58.755Z,98288
2018-01-22T16:01:05.715Z,98290
2018-01-22T16:03:13.567Z,98295
2018-01-22T16:05:20.550Z,98301
2018-01-22T16:07:30.272Z,98303
2018-01-22T16:09:39.494Z,98307
2018-01-22T16:11:48.433Z,98308
2018-01-22T16:13:56.820Z,98309
2018-01-22T16:16:03.544Z,98314
2018-01-22T16:18:11.686Z,98310
2018-01-22T16:20:19.176Z,98317
2018-01-22T16:22:28.528Z,98326
2018-01-22T16:24:34.581Z,98326
2018-01-22T16:26:41.190Z,98337
2018-01-22T16:28:47.280Z,98343
2018-01-22T16:30:53.174Z,98345
2018-01-22T16:33:00.299Z,98340
2018-01-22T16:37:32.412Z,98350
2018-01-22T16:39:38.389Z,98346
2018-01-22T16:41:44.162Z,98349
2018-01-22T16:43:50.066Z,98354
2018-01-22T16:45:56.750Z,98363
2018-01-22T16:48:03.666Z,98372
2018-01-22T16:50:12.552Z,98371
2018-01-22T16:52:22.212Z,98371
2018-01-22T16:54:53.429Z,98369
2018-01-22T16:57:00.367Z,98377
2018-01-22T16:59:11.522Z,98376
2018-01-22T17:01:19.459Z,98382
2018-01-22T17:06:05.692Z,98402
2018-01-22T17:08:14.755Z,98404
2018-01-22T17:10:27.600Z,98408
2018-01-22T17:12:35.849Z,98409
2018-01-22T17:14:42.904Z,98419
2018-01-22T17:16:54.980Z,98412
2018-01-22T17:19:02.564Z,98436
2018-01-22T17:21:08.812Z,98437
2018-01-22T17:23:15.876Z,98440
2018-01-22T17:25:24.195Z,98443
2018-01-22T17:27:32.648Z,98449
2018-01-22T17:29:39.259Z,98457
2018-01-22T17:31:45.941Z,98457
2018-01-22T17:33:52.361Z,98455
2018-01-22T17:35:58.491Z,98465
2018-01-22T17:38:05.419Z,98460
2018-01-22T17:40:14.797Z,98466
2018-01-22T17:44:35.980Z,98475
2018-01-22T17:46:44.001Z,98480
2018-01-22T17:48:51.737Z,98484
2018-01-22T17:51:06.473Z,98489
2018-01-22T17:53:12.802Z,98492
2018-01-22T17:55:19.311Z,98495
2018-01-22T17:57:25.564Z,98498
2018-01-22T17:59:36.480Z,98494
2018-01-22T18:01:43.672Z,98502
2018-01-22T18:03:51.323Z,98510
2018-01-22T18:06:00.645Z,98516
2018-01-22T18:08:06.813Z,98513
2018-01-22T18:10:16.924Z,98524
2018-01-22T18:12:22.983Z,98526
2018-01-22T18:14:30.909Z,98526
2018-01-22T18:16:37.193Z,98531
2018-01-22T18:18:47.044Z,98530
2018-01-22T18:20:56.718Z,98526
2018-01-22T18:23:05.406Z,98533
2018-01-22T18:25:11.499Z,98535
2018-01-22T18:27:17.818Z,98539
2018-01-22T18:29:32.701Z,98540
2018-01-22T18:31:44.416Z,98542
2018-01-22T18:34:00.012Z,98543
2018-01-22T18:36:07.143Z,98548
2018-01-22T18:38:16.292Z,98550
2018-01-22T18:40:23.199Z,98560
2018-01-22T18:42:32.694Z,98559
2018-01-22T18:44:43.460Z,98563
2018-01-22T18:46:52.347Z,98559
2018-01-22T18:49:01.941Z,98558
2018-01-22T18:51:08.885Z,98563
2018-01-22T18:53:15.301Z,98572
2018-01-22T18:55:26.929Z,98575
2018-01-22T18:57:32.885Z,98585
2018-01-22T18:59:39.402Z,98591
2018-01-22T19:01:46.635Z,98594
2018-01-22T19:03:53.794Z,98601
2018-01-22T19:06:01.179Z,98603
2018-01-22T19:08:08.680Z,98606
2018-01-22T19:10:15.351Z,98598
2018-01-22T19:12:22.412Z,98598
2018-01-22T19:17:00.379Z,98602
2018-01-22T19:19:15.852Z,98604
2018-01-22T19:21:22.201Z,98613
2018-01-22T19:23:30.602Z,98608
2018-01-22T19:25:36.546Z,98614
2018-01-22T19:27:42.717Z,98616
2018-01-22T19:29:49.388Z,98617
2018-01-22T19:31:55.682Z,98617
2018-01-22T19:34:01.904Z,98628
2018-01-22T19:36:08.701Z,98629
2018-01-22T19:38:15.619Z,98639
2018-01-22T19:40:22.253Z,98635
2018-01-22T19:42:30.274Z,98634
2018-01-22T19:44:40.329Z,98635
2018-01-22T19:46:47.544Z,98643
2018-01-22T19:48:53.759Z,98647
2018-01-22T19:50:59.883Z,98658
2018-01-22T19:53:06.686Z,98648
2018-01-22T19:55:22.791Z,98657
2018-01-22T19:57:33.115Z,98661
2018-01-22T19:59:41.673Z,98653
2018-01-22T20:01:49.523Z,98665
2018-01-22T20:03:57.827Z,98656
2018-01-22T20:06:08.323Z,98665
2018-01-22T20:08:15.281Z,98670
2018-01-22T20:10:22.430Z,98673
2018-01-22T20:12:34.899Z,98676
2018-01-22T20:14:52.646Z,98683
2018-01-22T20:17:08.395Z,98685
2018-01-22T20:24:13.666Z,98698
2018-01-22T20:26:28.919Z,98702
2018-01-22T20:28:45.906Z,98706
2018-01-22T20:31:00.964Z,98689
2018-01-22T20:33:12.730Z,98710
2018-01-22T20:37:56.774Z,98720
2018-01-22T20:42:35.735Z,98737
2018-01-22T20:44:43.353Z,98745
2018-01-22T20:46:52.722Z,98738
2018-01-22T20:49:03.367Z,98753
2018-01-22T20:51:10.116Z,98757
2018-01-22T20:53:18.129Z,98760
2018-01-22T20:55:28.765Z,98763
2018-01-22T20:57:36.775Z,98780
2018-01-22T20:59:43.307Z,98793
2018-01-22T21:01:53.513Z,98795
2018-01-22T21:04:01.324Z,98794
2018-01-22T21:06:07.450Z,98795
2018-01-22T21:08:13.897Z,98793
2018-01-22T21:10:20.844Z,98781
2018-01-22T21:12:31.512Z,98781
2018-01-22T21:14:37.413Z,98799
2018-01-22T21:16:43.437Z,98815
2018-01-22T21:18:51.002Z,98816
2018-01-22T21:21:02.425Z,98806
2018-01-22T21:23:10.198Z,98810
2018-01-22T21:25:18.919Z,98808
2018-01-22T21:27:30.848Z,98817
2018-01-22T21:29:42.791Z,98819
2018-01-22T21:31:51.258Z,98808
2018-01-22T21:34:04.880Z,98808
2018-01-22T21:36:14.624Z,98815
2018-01-22T21:38:25.350Z,98823
2018-01-22T21:40:34.973Z,98828
2018-01-22T21:42:42.479Z,98828
2018-01-22T21:44:50.219Z,98843
2018-01-22T21:46:58.067Z,98844
2018-01-22T21:49:04.148Z,98851
2018-01-22T21:51:10.627Z,98858
2018-01-22T21:53:16.491Z,98850
2018-01-22T21:55:22.693Z,98876
2018-01-22T21:57:33.077Z,98857
2018-01-22T21:59:40.835Z,98854
2018-01-22T22:01:47.104Z,98875
2018-01-22T22:03:53.619Z,98874
2018-01-22T22:05:59.658Z,98892
2018-01-22T22:08:07.001Z,98892
2018-01-22T22:10:13.895Z,98888
2018-01-22T22:12:21.717Z,98885
2018-01-22T22:14:32.281Z,98886
2018-01-22T22:16:42.997Z,98893
2018-01-22T22:18:55.498Z,98900
2018-01-22T22:21:03.580Z,98906
2018-01-22T22:23:10.964Z,98904
2018-01-22T22:25:17.219Z,98898
2018-01-22T22:27:31.714Z,98887
2018-01-22T22:29:40.651Z,98902
2018-01-22T22:31:46.456Z,98904
2018-01-22T22:33:52.804Z,98908
2018-01-22T22:36:00.660Z,98910
2018-01-22T22:38:09.537Z,98913
2018-01-22T22:40:17.290Z,98927
2018-01-22T22:42:27.479Z,98924
2018-01-22T22:44:35.062Z,98937
2018-01-22T22:52:26.946Z,98940
2018-01-22T22:54:34.287Z,98950
2018-01-22T22:56:41.623Z,98955
2018-01-22T22:58:48.687Z,98956
2018-01-22T23:00:55.669Z,98956
2018-01-22T23:03:03.644Z,98961
2018-01-22T23:07:46.368Z,98954
2018-01-22T23:09:52.375Z,98957
2018-01-22T23:12:00.153Z,98960
2018-01-22T23:14:06.829Z,98973
2018-01-22T23:16:14.910Z,98973
2018-01-22T23:18:21.384Z,98970
2018-01-22T23:20:29.559Z,98983
2018-01-22T23:22:36.621Z,98996
2018-01-22T23:24:46.232Z,98999
2018-01-22T23:26:57.578Z,99008
2018-01-22T23:29:04.473Z,99003
2018-01-22T23:31:10.764Z,99016
2018-01-22T23:33:17.189Z,99023
2018-01-22T23:35:23.339Z,99015
2018-01-22T23:37:32.426Z,99021
2018-01-22T23:39:42.479Z,99020
2018-01-22T23:41:51.339Z,99017
2018-01-22T23:43:58.333Z,99024
2018-01-22T23:46:12.945Z,99021
2018-01-22T23:48:20.081Z,99024
2018-01-22T23:50:28.852Z,99026
2018-01-22T23:52:36.434Z,99025
2018-01-22T23:54:43.108Z,99035
2018-01-22T23:56:56.266Z,99032
2018-01-22T23:59:02.396Z,99045
